createdAt,value
2022-08-14T00:02:27.715Z,16.63
2022-08-14T00:04:59.946Z,21.87
2022-08-14T00:07:28.496Z,25.20
2022-08-14T00:10:50.231Z,23.83
2022-08-14T00:12:56.717Z,22.13
2022-08-14T00:15:30.020Z,19.20
2022-08-14T00:18:07.355Z,18.00
2022-08-14T00:20:43.013Z,18.20
2022-08-14T00:23:16.754Z,19.07
2022-08-14T00:25:54.117Z,16.80
2022-08-14T00:28:32.818Z,16.00
2022-08-14T00:31:05.324Z,17.60
2022-08-14T00:33:50.852Z,18.00
2022-08-14T00:36:47.100Z,20.83
2022-08-14T00:39:13.467Z,18.53
2022-08-14T00:41:43.878Z,20.23
2022-08-14T00:44:12.646Z,23.63
2022-08-14T00:46:42.561Z,19.87
2022-08-14T00:49:14.518Z,23.20
2022-08-14T00:51:44.589Z,19.33
2022-08-14T00:54:20.971Z,23.47
2022-08-14T00:56:55.566Z,21.00
2022-08-14T00:59:25.919Z,21.23
2022-08-14T01:01:58.412Z,20.87
2022-08-14T01:04:52.367Z,20.10
2022-08-14T01:07:20.634Z,18.60
2022-08-14T01:09:51.495Z,23.03
2022-08-14T01:12:26.547Z,20.13
2022-08-14T01:14:58.252Z,20.20
2022-08-14T01:17:50.809Z,27.57
2022-08-14T01:20:40.966Z,23.93
2022-08-14T01:23:19.037Z,25.63
2022-08-14T01:25:51.823Z,19.80
2022-08-14T01:28:46.938Z,18.40
2022-08-14T01:31:14.641Z,21.70
2022-08-14T01:34:00.450Z,18.90
2022-08-14T01:36:39.407Z,20.53
2022-08-14T01:39:12.955Z,23.23
2022-08-14T01:41:44.069Z,21.00
2022-08-14T01:44:32.551Z,20.70
2022-08-14T01:47:21.386Z,21.83
2022-08-14T01:50:01.230Z,21.10
2022-08-14T01:52:58.780Z,32.57
2022-08-14T01:55:32.314Z,24.30
2022-08-14T01:58:19.815Z,20.07
2022-08-14T02:00:54.718Z,18.77
2022-08-14T02:03:29.799Z,20.80
2022-08-14T02:06:04.153Z,25.87
2022-08-14T02:08:52.817Z,23.00
2022-08-14T02:11:26.163Z,22.40
2022-08-14T02:14:07.520Z,19.70
2022-08-14T02:16:39.216Z,23.93
2022-08-14T02:19:10.235Z,22.20
2022-08-14T02:21:43.583Z,18.90
2022-08-14T02:24:39.573Z,20.27
2022-08-14T02:28:23.429Z,17.93
2022-08-14T02:30:00.795Z,21.57
2022-08-14T02:32:36.941Z,19.30
2022-08-14T02:35:10.336Z,21.23
2022-08-14T02:37:48.144Z,18.70
2022-08-14T02:40:18.506Z,20.27
2022-08-14T02:42:55.220Z,18.70
2022-08-14T02:45:33.595Z,21.33
2022-08-14T02:48:10.583Z,19.10
2022-08-14T02:50:56.819Z,20.13
2022-08-14T02:53:29.543Z,22.00
2022-08-14T02:56:02.608Z,22.33
2022-08-14T02:58:38.613Z,20.73
2022-08-14T03:01:11.736Z,23.63
2022-08-14T03:03:41.641Z,27.67
2022-08-14T03:06:13.496Z,21.37
2022-08-14T03:08:49.341Z,19.33
2022-08-14T03:11:18.672Z,19.30
2022-08-14T03:13:51.565Z,19.57
2022-08-14T03:16:26.979Z,18.30
2022-08-14T03:19:01.032Z,21.00
2022-08-14T03:21:31.423Z,19.93
2022-08-14T03:24:16.564Z,18.87
2022-08-14T03:26:56.153Z,27.30
2022-08-14T03:29:29.477Z,18.90
2022-08-14T03:31:59.394Z,23.33
2022-08-14T03:34:48.372Z,21.27
2022-08-14T03:37:38.907Z,20.87
2022-08-14T03:40:07.386Z,25.50
2022-08-14T03:42:40.477Z,23.17
2022-08-14T03:45:18.536Z,20.23
2022-08-14T03:47:58.424Z,22.90
2022-08-14T03:50:31.551Z,22.47
2022-08-14T03:53:02.157Z,20.87
2022-08-14T03:55:31.437Z,20.63
2022-08-14T03:58:01.040Z,17.07
2022-08-14T04:00:43.651Z,21.03
2022-08-14T04:03:23.608Z,20.73
2022-08-14T04:05:53.486Z,20.13
2022-08-14T04:08:30.428Z,23.90
2022-08-14T04:11:02.063Z,22.17
2022-08-14T04:13:34.060Z,20.03
2022-08-14T04:16:10.097Z,26.13
2022-08-14T04:18:42.387Z,19.80
2022-08-14T04:21:11.776Z,21.70
2022-08-14T04:23:42.734Z,23.90
2022-08-14T04:26:27.364Z,18.37
2022-08-14T04:29:14.691Z,22.23
2022-08-14T04:33:00.411Z,20.97
2022-08-14T04:34:35.172Z,21.30
2022-08-14T04:37:25.343Z,24.30
2022-08-14T04:40:13.365Z,25.30
2022-08-14T04:43:01.803Z,21.90
2022-08-14T04:45:38.763Z,21.13
2022-08-14T04:48:39.086Z,24.33
2022-08-14T04:51:05.806Z,22.10
2022-08-14T04:53:42.956Z,25.07
2022-08-14T04:56:31.213Z,26.83
2022-08-14T04:59:09.498Z,24.30
2022-08-14T05:01:45.246Z,32.67
2022-08-14T05:04:20.784Z,21.83
2022-08-14T05:06:54.198Z,23.57
2022-08-14T05:09:23.684Z,23.23
2022-08-14T05:11:53.070Z,24.47
2022-08-14T05:14:45.524Z,23.70
2022-08-14T05:17:12.316Z,23.47
2022-08-14T05:19:44.904Z,25.10
2022-08-14T05:22:31.414Z,23.27
2022-08-14T05:25:01.181Z,27.50
2022-08-14T05:27:31.032Z,19.50
2022-08-14T05:30:01.201Z,22.20
2022-08-14T05:32:29.733Z,20.80
2022-08-14T05:35:00.959Z,20.90
2022-08-14T05:37:30.872Z,23.93
2022-08-14T05:40:02.100Z,22.53
2022-08-14T05:42:32.226Z,21.57
2022-08-14T05:45:04.061Z,23.50
2022-08-14T05:47:39.539Z,21.33
2022-08-14T05:50:17.613Z,22.03
2022-08-14T05:52:48.610Z,23.80
2022-08-14T05:55:21.979Z,21.67
2022-08-14T05:57:53.292Z,22.50
2022-08-14T06:00:28.558Z,22.23
2022-08-14T06:03:00.907Z,21.73
2022-08-14T06:05:38.728Z,24.53
2022-08-14T06:08:21.735Z,20.30
2022-08-14T06:11:06.567Z,20.30
2022-08-14T06:13:44.599Z,30.33
2022-08-14T06:16:17.590Z,19.40
2022-08-14T06:18:52.706Z,19.40
2022-08-14T06:21:23.813Z,21.73
2022-08-14T06:23:52.689Z,20.13
2022-08-14T06:26:22.376Z,18.63
2022-08-14T06:28:52.783Z,21.27
2022-08-14T06:31:22.595Z,18.63
2022-08-14T06:35:09.526Z,20.73
2022-08-14T06:36:41.269Z,21.00
2022-08-14T06:39:10.895Z,19.93
2022-08-14T06:41:56.915Z,18.10
2022-08-14T06:44:32.197Z,18.97
2022-08-14T06:47:02.678Z,18.83
2022-08-14T06:49:40.443Z,20.50
2022-08-14T06:52:18.310Z,24.47
2022-08-14T06:54:47.920Z,20.70
2022-08-14T06:57:16.465Z,20.80
2022-08-14T06:59:45.059Z,19.00
2022-08-14T07:02:31.111Z,26.03
2022-08-14T07:05:22.853Z,18.97
2022-08-14T07:07:53.330Z,22.27
2022-08-14T07:10:24.945Z,21.33
2022-08-14T07:13:03.916Z,19.17
2022-08-14T07:15:39.916Z,19.17
2022-08-14T07:18:12.149Z,17.17
2022-08-14T07:20:42.245Z,17.70
2022-08-14T07:23:20.827Z,20.53
2022-08-14T07:25:51.941Z,25.13
2022-08-14T07:28:24.591Z,23.83
2022-08-14T07:30:57.488Z,15.80
2022-08-14T07:33:36.658Z,17.67
2022-08-14T07:36:27.415Z,20.33
2022-08-14T07:39:00.288Z,25.07
2022-08-14T07:41:31.242Z,17.03
2022-08-14T07:44:32.226Z,20.97
2022-08-14T07:46:51.954Z,19.07
2022-08-14T07:49:20.932Z,18.97
2022-08-14T07:51:52.842Z,15.37
2022-08-14T07:54:29.815Z,26.03
2022-08-14T07:56:59.847Z,16.80
2022-08-14T07:59:42.569Z,17.50
2022-08-14T08:02:18.921Z,15.47
2022-08-14T08:04:52.968Z,15.63
2022-08-14T08:07:29.519Z,20.27
2022-08-14T08:10:02.266Z,15.37
2022-08-14T08:12:32.475Z,14.93
2022-08-14T08:15:07.488Z,13.87
2022-08-14T08:17:42.492Z,15.50
2022-08-14T08:20:27.230Z,12.93
2022-08-14T08:23:00.375Z,13.83
2022-08-14T08:25:33.027Z,13.50
2022-08-14T08:28:21.863Z,12.00
2022-08-14T08:30:56.459Z,11.93
2022-08-14T08:33:32.208Z,12.50
2022-08-14T08:36:03.773Z,12.83
2022-08-14T08:39:15.701Z,13.67
2022-08-14T08:41:23.487Z,13.90
2022-08-14T08:43:52.647Z,19.00
2022-08-14T08:46:24.043Z,13.53
2022-08-14T08:51:30.921Z,15.67
2022-08-14T08:54:04.545Z,16.00
2022-08-14T08:56:42.966Z,15.17
2022-08-14T08:59:27.352Z,11.67
2022-08-14T09:02:04.898Z,12.60
2022-08-14T09:04:45.538Z,12.13
2022-08-14T09:07:27.248Z,15.20
2022-08-14T09:09:59.196Z,14.30
2022-08-14T09:12:31.354Z,11.67
2022-08-14T09:15:03.098Z,12.80
2022-08-14T09:17:33.244Z,11.30
2022-08-14T09:20:03.955Z,11.83
2022-08-14T09:22:36.716Z,10.70
2022-08-14T09:25:11.665Z,9.40
2022-08-14T09:27:45.235Z,9.70
2022-08-14T09:30:32.887Z,9.57
2022-08-14T09:33:31.430Z,8.73
2022-08-14T09:36:28.736Z,8.40
2022-08-14T09:39:11.812Z,11.00
2022-08-14T09:42:21.989Z,8.60
2022-08-14T09:45:13.316Z,9.37
2022-08-14T09:47:43.505Z,9.67
2022-08-14T09:50:25.938Z,9.50
2022-08-14T09:53:03.756Z,8.87
2022-08-14T09:55:41.638Z,11.57
2022-08-14T09:58:19.158Z,8.30
2022-08-14T10:00:52.733Z,8.57
2022-08-14T10:03:34.028Z,9.60
2022-08-14T10:06:08.556Z,10.47
2022-08-14T10:08:50.941Z,7.43
2022-08-14T10:11:23.214Z,8.60
2022-08-14T10:13:55.896Z,9.07
2022-08-14T10:16:33.797Z,7.83
2022-08-14T10:19:07.279Z,8.80
2022-08-14T10:21:38.930Z,9.77
2022-08-14T10:24:36.107Z,9.43
2022-08-14T10:27:06.518Z,10.97
2022-08-14T10:29:37.110Z,9.37
2022-08-14T10:32:17.668Z,11.50
2022-08-14T10:34:52.828Z,11.90
2022-08-14T10:37:23.625Z,8.80
2022-08-14T10:40:05.766Z,8.57
2022-08-14T10:42:43.697Z,11.50
2022-08-14T10:45:21.199Z,7.40
2022-08-14T10:48:08.655Z,9.50
2022-08-14T10:50:46.397Z,9.10
2022-08-14T10:53:15.861Z,9.07
2022-08-14T10:55:45.784Z,9.30
2022-08-14T10:58:17.625Z,9.90
2022-08-14T11:00:57.453Z,8.83
2022-08-14T11:03:56.847Z,11.30
2022-08-14T11:06:27.139Z,14.10
2022-08-14T11:08:55.945Z,10.17
2022-08-14T11:11:35.810Z,8.73
2022-08-14T11:14:09.515Z,10.13
2022-08-14T11:16:40.610Z,9.67
2022-08-14T11:19:13.114Z,8.50
2022-08-14T11:21:45.826Z,9.73
2022-08-14T11:24:55.305Z,10.23
2022-08-14T11:27:07.179Z,9.07
2022-08-14T11:29:36.938Z,8.63
2022-08-14T11:32:07.136Z,11.63
2022-08-14T11:34:39.710Z,9.77
2022-08-14T11:37:23.522Z,8.60
2022-08-14T11:39:59.597Z,11.60
2022-08-14T11:42:56.608Z,10.87
2022-08-14T11:45:23.225Z,10.90
2022-08-14T11:48:13.555Z,10.70
2022-08-14T11:50:43.364Z,11.10
2022-08-14T11:53:21.781Z,10.47
2022-08-14T11:55:58.119Z,9.47
2022-08-14T11:58:29.105Z,8.60
2022-08-14T12:01:04.051Z,9.80
2022-08-14T12:03:51.883Z,9.80
2022-08-14T12:06:39.437Z,10.07
2022-08-14T12:09:14.934Z,9.10
2022-08-14T12:11:46.976Z,14.13
2022-08-14T12:14:30.324Z,11.47
2022-08-14T12:17:12.749Z,12.23
2022-08-14T12:19:51.348Z,10.03
2022-08-14T12:22:34.726Z,8.20
2022-08-14T12:25:10.021Z,8.30
2022-08-14T12:27:53.235Z,9.20
2022-08-14T12:30:39.638Z,8.80
2022-08-14T12:33:24.065Z,10.10
2022-08-14T12:35:56.421Z,8.43
2022-08-14T12:38:41.319Z,10.50
2022-08-14T12:41:20.257Z,9.03
2022-08-14T12:43:51.668Z,9.43
2022-08-14T12:46:28.690Z,7.97
2022-08-14T12:48:59.548Z,9.60
2022-08-14T12:51:30.587Z,10.43
2022-08-14T12:54:01.740Z,10.00
2022-08-14T12:56:34.564Z,10.73
2022-08-14T12:59:06.344Z,10.50
2022-08-14T13:01:59.803Z,8.90
2022-08-14T13:04:25.951Z,9.23
2022-08-14T13:06:54.941Z,8.43
2022-08-14T13:09:35.837Z,9.90
2022-08-14T13:12:34.932Z,9.20
2022-08-14T13:14:59.022Z,10.67
2022-08-14T13:17:29.022Z,9.37
2022-08-14T13:20:10.084Z,9.00
2022-08-14T13:22:42.703Z,9.47
2022-08-14T13:25:16.093Z,12.50
2022-08-14T13:27:47.835Z,8.87
2022-08-14T13:30:23.736Z,9.97
2022-08-14T13:32:54.303Z,9.93
2022-08-14T13:35:23.394Z,12.10
2022-08-14T13:37:53.552Z,9.90
2022-08-14T13:40:27.687Z,9.20
2022-08-14T13:42:57.642Z,8.23
2022-08-14T13:45:33.629Z,9.30
2022-08-14T13:48:28.504Z,13.40
2022-08-14T13:51:05.427Z,11.17
2022-08-14T13:54:07.029Z,9.40
2022-08-14T13:56:40.089Z,10.17
2022-08-14T13:59:10.432Z,10.60
2022-08-14T14:01:43.302Z,10.03
2022-08-14T14:04:19.500Z,12.70
2022-08-14T14:06:51.083Z,10.47
2022-08-14T14:09:37.799Z,9.93
2022-08-14T14:12:49.022Z,11.27
2022-08-14T14:15:09.583Z,9.80
2022-08-14T14:17:39.502Z,9.33
2022-08-14T14:20:15.323Z,8.50
2022-08-14T14:23:02.816Z,15.50
2022-08-14T14:25:38.675Z,9.90
2022-08-14T14:28:24.026Z,16.20
2022-08-14T14:30:57.190Z,10.03
2022-08-14T14:36:20.960Z,8.00
2022-08-14T14:38:58.445Z,13.60
2022-08-14T14:41:37.619Z,8.10
2022-08-14T14:44:13.478Z,8.50
2022-08-14T14:46:50.858Z,10.37
2022-08-14T14:49:21.899Z,10.50
2022-08-14T14:51:52.494Z,9.30
2022-08-14T14:54:32.179Z,16.40
2022-08-14T14:57:09.536Z,10.73
2022-08-14T14:59:39.490Z,12.00
2022-08-14T15:02:09.602Z,9.27
2022-08-14T15:04:43.822Z,8.57
2022-08-14T15:07:13.108Z,15.30
2022-08-14T15:09:45.367Z,11.40
2022-08-14T15:12:34.336Z,11.37
2022-08-14T15:15:11.929Z,10.27
2022-08-14T15:17:42.083Z,9.40
2022-08-14T15:20:17.503Z,9.87
2022-08-14T15:23:03.528Z,16.43
2022-08-14T15:25:41.109Z,10.60
2022-08-14T15:28:13.063Z,9.30
2022-08-14T15:30:57.789Z,9.40
2022-08-14T15:36:30.463Z,10.73
2022-08-14T15:39:00.952Z,8.57
2022-08-14T15:41:33.712Z,10.73
2022-08-14T15:44:19.104Z,8.97
2022-08-14T15:46:58.316Z,8.43
2022-08-14T15:49:34.978Z,12.83
2022-08-14T15:52:04.988Z,10.47
2022-08-14T15:54:33.910Z,14.23
2022-08-14T15:57:06.177Z,9.60
2022-08-14T15:59:51.237Z,9.37
2022-08-14T16:02:27.730Z,9.07
2022-08-14T16:04:56.654Z,15.20
2022-08-14T16:07:27.246Z,9.90
2022-08-14T16:10:27.304Z,13.03
2022-08-14T16:12:47.373Z,9.50
2022-08-14T16:15:17.880Z,9.63
2022-08-14T16:17:50.310Z,9.87
2022-08-14T16:20:42.385Z,11.03
2022-08-14T16:23:11.709Z,9.87
2022-08-14T16:25:43.504Z,11.20
2022-08-14T16:28:26.971Z,11.80
2022-08-14T16:30:56.682Z,11.13
2022-08-14T16:33:27.990Z,12.80
2022-08-14T16:36:31.405Z,11.07
2022-08-14T16:39:03.043Z,18.57
2022-08-14T16:41:32.237Z,10.97
2022-08-14T16:44:05.895Z,10.23
2022-08-14T16:46:44.579Z,34.13
2022-08-14T16:49:20.377Z,14.17
2022-08-14T16:51:52.999Z,14.80
2022-08-14T16:54:35.015Z,11.63
2022-08-14T16:57:16.902Z,13.20
2022-08-14T16:59:52.849Z,13.40
2022-08-14T17:02:35.547Z,14.60
2022-08-14T17:05:24.859Z,15.13
2022-08-14T17:08:31.643Z,15.73
2022-08-14T17:11:10.271Z,10.60
2022-08-14T17:13:58.189Z,11.93
2022-08-14T17:16:37.517Z,10.50
2022-08-14T17:19:09.918Z,9.83
2022-08-14T17:21:46.804Z,10.63
2022-08-14T17:24:51.458Z,11.47
2022-08-14T17:27:08.158Z,11.03
2022-08-14T17:29:54.330Z,15.03
2022-08-14T17:32:44.553Z,13.53
2022-08-14T17:35:59.003Z,12.17
2022-08-14T17:38:59.860Z,14.30
2022-08-14T17:41:43.689Z,15.57
2022-08-14T17:44:44.971Z,12.30
2022-08-14T17:47:18.314Z,10.53
2022-08-14T17:49:53.937Z,11.63
2022-08-14T17:52:36.091Z,13.43
2022-08-14T17:56:01.325Z,14.40
2022-08-14T17:58:16.572Z,16.00
2022-08-14T18:00:52.126Z,15.37
2022-08-14T18:03:50.420Z,12.87
2022-08-14T18:06:38.678Z,12.13
2022-08-14T18:09:01.559Z,12.37
2022-08-14T18:11:46.208Z,10.40
2022-08-14T18:14:31.450Z,15.07
2022-08-14T18:17:01.543Z,12.27
2022-08-14T18:19:34.599Z,11.37
2022-08-14T18:22:31.135Z,13.80
2022-08-14T18:24:58.778Z,10.27
2022-08-14T18:27:36.910Z,10.53
2022-08-14T18:30:31.923Z,14.63
2022-08-14T18:32:59.073Z,13.30
2022-08-14T18:35:45.669Z,15.50
2022-08-14T18:38:59.845Z,9.80
2022-08-14T18:41:37.019Z,12.60
2022-08-14T18:44:10.560Z,13.67
2022-08-14T18:47:15.942Z,12.60
2022-08-14T18:50:00.797Z,10.80
2022-08-14T18:52:49.304Z,10.40
2022-08-14T18:55:54.028Z,10.30
2022-08-14T18:58:34.418Z,11.57
2022-08-14T19:01:06.438Z,12.70
2022-08-14T19:03:59.940Z,22.53
2022-08-14T19:06:56.278Z,16.10
2022-08-14T19:09:57.905Z,10.90
2022-08-14T19:13:12.021Z,16.83
2022-08-14T19:15:43.898Z,12.30
2022-08-14T19:18:38.582Z,23.83
2022-08-14T19:21:13.364Z,15.30
2022-08-14T19:24:04.852Z,12.23
2022-08-14T19:27:14.766Z,10.60
2022-08-14T19:29:47.752Z,15.00
2022-08-14T19:32:40.841Z,16.17
2022-08-14T19:35:55.415Z,18.23
2022-08-14T19:38:51.976Z,11.83
2022-08-14T19:41:25.115Z,14.30
2022-08-14T19:44:12.575Z,11.20
2022-08-14T19:47:01.066Z,11.87
2022-08-14T19:50:07.955Z,14.17
2022-08-14T19:52:35.310Z,14.23
2022-08-14T19:55:17.173Z,13.63
2022-08-14T19:57:52.028Z,18.37
2022-08-14T20:00:29.117Z,11.97
2022-08-14T20:03:10.154Z,15.90
2022-08-14T20:05:45.708Z,21.97
2022-08-14T20:11:00.609Z,16.50
2022-08-14T20:12:00.548Z,13.43
2022-08-14T20:14:20.547Z,16.37
2022-08-14T20:16:54.646Z,16.30
2022-08-14T20:19:28.728Z,13.47
2022-08-14T20:22:04.645Z,27.33
2022-08-14T20:24:54.226Z,15.30
2022-08-14T20:27:33.290Z,14.30
2022-08-14T20:30:37.601Z,13.17
2022-08-14T20:33:11.256Z,12.67
2022-08-14T20:35:47.701Z,13.03
2022-08-14T20:38:29.198Z,18.80
2022-08-14T20:41:06.497Z,15.63
2022-08-14T20:43:54.576Z,11.23
2022-08-14T20:46:30.093Z,12.40
2022-08-14T20:49:02.377Z,20.03
2022-08-14T20:51:47.486Z,21.13
2022-08-14T20:54:34.654Z,12.37
2022-08-14T20:57:11.986Z,15.37
2022-08-14T20:59:44.424Z,12.70
2022-08-14T21:02:38.692Z,16.73
2022-08-14T21:05:22.501Z,16.30
2022-08-14T21:08:08.384Z,13.40
2022-08-14T21:10:53.206Z,14.60
2022-08-14T21:13:27.883Z,12.70
2022-08-14T21:16:34.386Z,11.90
2022-08-14T21:19:04.880Z,17.13
2022-08-14T21:21:41.663Z,11.97
2022-08-14T21:24:38.839Z,13.30
2022-08-14T21:27:13.011Z,21.70
2022-08-14T21:29:49.828Z,13.23
2022-08-14T21:32:36.486Z,14.10
2022-08-14T21:35:17.707Z,14.90
2022-08-14T21:37:47.941Z,13.37
2022-08-14T21:40:40.807Z,13.03
2022-08-14T21:43:18.577Z,23.03
2022-08-14T21:45:53.226Z,14.40
2022-08-14T21:48:25.303Z,12.80
2022-08-14T21:51:01.322Z,14.60
2022-08-14T21:53:36.763Z,13.80
2022-08-14T21:56:38.961Z,15.60
2022-08-14T21:59:10.967Z,12.60
2022-08-14T22:02:00.957Z,12.40
2022-08-14T22:04:40.599Z,17.60
2022-08-14T22:07:16.776Z,14.27
2022-08-14T22:09:54.646Z,14.60
2022-08-14T22:12:58.484Z,15.10
2022-08-14T22:15:16.393Z,18.23
2022-08-14T22:17:50.949Z,14.60
2022-08-14T22:20:22.861Z,19.73
2022-08-14T22:22:55.993Z,15.97
2022-08-14T22:25:33.828Z,16.60
2022-08-14T22:28:05.713Z,20.17
2022-08-14T22:30:35.096Z,12.90
2022-08-14T22:33:04.681Z,12.87
2022-08-14T22:35:33.977Z,13.80
2022-08-14T22:38:37.423Z,14.90
2022-08-14T22:41:12.553Z,13.50
2022-08-14T22:43:42.511Z,17.53
2022-08-14T22:46:15.503Z,14.70
2022-08-14T22:48:51.044Z,16.00
2022-08-14T22:51:22.870Z,15.00
2022-08-14T22:53:55.163Z,13.43
2022-08-14T22:56:30.047Z,21.60
2022-08-14T22:59:01.160Z,15.23
2022-08-14T23:01:57.322Z,23.13
2022-08-14T23:04:35.841Z,13.83
2022-08-14T23:07:23.220Z,13.10
2022-08-14T23:09:56.423Z,14.50
2022-08-14T23:12:37.103Z,13.73
2022-08-14T23:15:07.502Z,15.63
2022-08-14T23:17:40.474Z,14.30
2022-08-14T23:20:19.279Z,19.33
2022-08-14T23:22:51.200Z,14.60
2022-08-14T23:25:53.197Z,15.23
2022-08-14T23:28:34.495Z,14.10
2022-08-14T23:31:08.319Z,15.57
2022-08-14T23:33:42.019Z,13.83
2022-08-14T23:36:32.783Z,15.23
2022-08-14T23:39:10.273Z,16.90
2022-08-14T23:41:46.452Z,14.30
2022-08-14T23:44:23.756Z,16.10
2022-08-14T23:47:00.604Z,13.30
2022-08-14T23:49:59.817Z,16.17
2022-08-14T23:52:57.413Z,18.87
2022-08-14T23:55:11.774Z,18.50
2022-08-14T23:57:44.135Z,17.97
